Urb Pastor Felix Rios Lopez, Puerto Rico
Current Conditions -  °F | °C
As of 9:53 PM on Friday 21 Nov 2014 (Local Time) from TJNR Reporting Station
Overcast Overcast  
Wind Chill: 80°   Ceiling: 2800
Heat Index: 84°   Visibility: 10mi
Dew Point: 73°   Wind: 8mph
Humidity: 79%   Direction: 150°SSE
Pressure: 30.06"   Gusts: NA
Location:  18.2667°N, 65.6476°W
Report Text: TJNR 220153Z AUTO 15007KT 10SM SCT023 BKN028 OVC041 27/23 A3006 RMK AO2 SLP179 T02670228 $
Loading
Personal Weather Stations






























Interactive Weather Map New forecast layout! Learn more

10-Day Weather Forecast

Advertisements
Track Severe Weather on mobile